Time;durP1;ratioP1;P1;durP2;ratioP2;P2;SDS_P1;SDS_P2;PMS_P1;PMS_P2;Temp;Humidity;BMP_temperature;BMP_pressure;BME280_temperature;BME280_humidity;BME280_pressure;Samples;Min_cycle;Max_cycle;Signal;HPM_P1;HPM_P2
2021/12/21 00:01:28;;;;;;;189.85;35.92;;;-1.20;99.90;;;;;;5053600;28;20025;-71
2021/12/21 00:03:54;;;;;;;168.38;32.83;;;-1.20;99.90;;;;;;5054666;28;20531;-70
2021/12/21 00:06:19;;;;;;;424.65;45.53;;;-1.20;99.90;;;;;;5054631;28;20033;-71
2021/12/21 00:08:45;;;;;;;314.10;37.92;;;-1.20;99.90;;;;;;5053729;28;20055;-71
2021/12/21 00:11:10;;;;;;;365.52;39.80;;;-1.30;99.90;;;;;;5053140;28;20482;-71
2021/12/21 00:13:47;;;;;;;217.85;34.10;;;-1.40;99.90;;;;;;5052809;28;20025;-71
2021/12/21 00:16:19;;;;;;;203.93;34.28;;;-1.40;99.90;;;;;;5054143;28;20026;-71
2021/12/21 00:19:04;;;;;;;111.53;25.27;;;-1.40;99.90;;;;;;5052682;28;20145;-71
2021/12/21 00:21:36;;;;;;;198.63;32.85;;;-1.40;99.90;;;;;;5053411;28;20029;-70
2021/12/21 00:24:11;;;;;;;217.07;32.60;;;-1.40;99.90;;;;;;5053495;28;20017;-72
2021/12/21 00:26:37;;;;;;;173.30;31.27;;;-1.30;99.90;;;;;;5037669;28;20016;-71
2021/12/21 00:29:03;;;;;;;295.33;37.55;;;-1.30;99.90;;;;;;5052578;28;20036;-71
2021/12/21 00:31:32;;;;;;;283.02;34.25;;;-1.40;99.90;;;;;;5054246;28;20107;-70
2021/12/21 00:33:58;;;;;;;166.63;30.50;;;-1.40;99.90;;;;;;5054206;28;20032;-71
2021/12/21 00:36:26;;;;;;;207.90;34.22;;;-1.40;99.90;;;;;;5052674;28;20029;-71
2021/12/21 00:38:53;;;;;;;174.23;31.00;;;-1.40;99.90;;;;;;5053037;28;20397;-71
2021/12/21 00:41:20;;;;;;;144.50;28.27;;;-1.40;99.90;;;;;;5035898;28;20029;-71
2021/12/21 00:43:46;;;;;;;155.70;29.60;;;-1.40;99.90;;;;;;5052317;28;20021;-71
2021/12/21 00:46:12;;;;;;;189.45;36.35;;;-1.40;99.90;;;;;;5052913;28;20028;-71
2021/12/21 00:48:47;;;;;;;134.98;30.00;;;-1.50;99.90;;;;;;5052234;28;20024;-71
2021/12/21 00:51:12;;;;;;;151.77;31.67;;;-1.40;99.90;;;;;;5053215;28;20482;-71
2021/12/21 00:53:39;;;;;;;259.10;36.80;;;-1.30;99.90;;;;;;5053975;28;20082;-71
2021/12/21 00:56:05;;;;;;;175.52;33.83;;;-1.30;99.90;;;;;;5052325;28;20521;-71
2021/12/21 00:58:31;;;;;;;237.68;36.22;;;-1.30;99.90;;;;;;5053901;28;20018;-71
2021/12/21 01:00:57;;;;;;;119.22;32.03;;;-1.20;99.90;;;;;;5052745;28;20454;-71
2021/12/21 01:03:23;;;;;;;135.90;29.08;;;-1.20;99.90;;;;;;5052735;28;20078;-70
2021/12/21 01:05:57;;;;;;;129.43;30.23;;;-1.30;99.90;;;;;;5053871;28;20111;-71
2021/12/21 01:08:27;;;;;;;169.32;31.60;;;-1.20;99.90;;;;;;5052001;28;20055;-71
2021/12/21 01:11:07;;;;;;;114.28;28.58;;;-1.30;99.90;;;;;;5053799;28;20021;-71
2021/12/21 01:13:44;;;;;;;165.40;30.30;;;-1.30;99.90;;;;;;5053487;28;20017;-71
2021/12/21 01:16:23;;;;;;;110.80;29.63;;;-1.30;99.90;;;;;;5052080;28;20549;-70
2021/12/21 01:19:12;;;;;;;209.75;32.63;;;-1.40;99.90;;;;;;5053726;28;20025;-70
2021/12/21 01:21:43;;;;;;;188.20;29.17;;;-1.50;99.90;;;;;;5053063;28;20032;-70
2021/12/21 01:24:23;;;;;;;164.85;28.90;;;-1.60;99.90;;;;;;5053712;28;20031;-70
2021/12/21 01:27:01;;;;;;;211.98;34.28;;;-1.60;99.90;;;;;;5052399;28;20028;-70
2021/12/21 01:30:06;;;;;;;193.20;30.15;;;-1.60;99.90;;;;;;5052347;28;20071;-70
2021/12/21 01:32:23;;;;;;;139.32;30.17;;;-1.70;99.90;;;;;;5051939;28;20059;-70
2021/12/21 01:35:03;;;;;;;299.65;38.90;;;-1.70;99.90;;;;;;5054157;28;20017;-70
2021/12/21 01:38:09;;;;;;;202.52;33.20;;;-1.60;99.90;;;;;;5052487;28;20480;-70
2021/12/21 01:40:54;;;;;;;361.95;39.13;;;-1.70;99.90;;;;;;5051908;28;20031;-71
2021/12/21 01:43:13;;;;;;;320.08;39.42;;;-1.80;99.90;;;;;;5051921;28;20146;-70
2021/12/21 01:51:12;;;;;;;237.57;36.70;;;-1.80;99.90;;;;;;5051810;28;20079;-71
2021/12/21 01:53:38;;;;;;;318.65;39.05;;;-1.80;99.90;;;;;;5051961;28;20100;-71
2021/12/21 01:56:05;;;;;;;438.77;48.53;;;-1.80;99.90;;;;;;5051528;28;20041;-71
2021/12/21 01:58:33;;;;;;;274.65;39.60;;;-1.80;99.90;;;;;;5053358;28;20082;-71
2021/12/21 02:01:00;;;;;;;408.70;43.38;;;-1.80;99.90;;;;;;5053340;28;20014;-70
2021/12/21 02:03:26;;;;;;;347.45;43.20;;;-1.90;99.90;;;;;;5052599;28;20071;-71
2021/12/21 02:05:52;;;;;;;369.10;42.33;;;-1.80;99.90;;;;;;5055256;28;20033;-71
2021/12/21 02:08:17;;;;;;;246.77;38.97;;;-1.90;99.90;;;;;;5055765;28;20036;-71
2021/12/21 02:10:43;;;;;;;320.52;44.28;;;-2.00;99.90;;;;;;5055142;28;20366;-71
2021/12/21 02:13:08;;;;;;;294.52;41.45;;;-2.00;99.90;;;;;;5055363;28;20025;-71
2021/12/21 02:15:34;;;;;;;257.75;38.97;;;-1.90;99.90;;;;;;5054894;28;20079;-71
2021/12/21 02:18:28;;;;;;;213.40;36.92;;;-1.90;99.90;;;;;;5054917;28;20493;-70
2021/12/21 02:20:52;;;;;;;156.05;35.20;;;-1.90;99.90;;;;;;5055002;28;20025;-71
2021/12/21 02:23:26;;;;;;;;;;;-1.80;99.90;;;;;;5040394;28;20409;-70
2021/12/21 02:26:11;;;;;;;;;;;-1.80;99.90;;;;;;5056305;28;19905;-70
2021/12/21 02:31:09;;;;;;;206.13;38.75;;;-1.80;99.90;;;;;;5054993;28;20351;-71
2021/12/21 02:33:35;;;;;;;185.63;36.83;;;-1.80;99.90;;;;;;5056413;28;20028;-70
2021/12/21 02:36:02;;;;;;;183.90;36.88;;;-1.90;99.90;;;;;;5056318;28;20060;-70
2021/12/21 02:38:28;;;;;;;190.30;36.60;;;-1.90;99.90;;;;;;5054922;28;20078;-70
2021/12/21 02:40:55;;;;;;;253.40;36.85;;;-1.90;99.90;;;;;;5054575;28;20075;-70
2021/12/21 02:43:21;;;;;;;225.60;40.58;;;-2.00;99.90;;;;;;5054498;28;20025;-70
2021/12/21 02:45:47;;;;;;;258.77;36.63;;;-1.90;99.90;;;;;;5038226;28;20351;-70
2021/12/21 02:48:13;;;;;;;183.25;38.20;;;-2.00;99.90;;;;;;5038201;28;20472;-70
2021/12/21 02:50:39;;;;;;;160.30;37.25;;;-2.00;99.90;;;;;;5056119;28;20037;-71
2021/12/21 02:53:07;;;;;;;300.83;45.05;;;-2.00;99.90;;;;;;5054243;28;20017;-70
2021/12/21 02:55:33;;;;;;;151.48;36.47;;;-2.00;99.90;;;;;;5054911;28;20394;-71
2021/12/21 02:57:58;;;;;;;154.38;35.78;;;-2.00;99.90;;;;;;5055909;28;20037;-70
2021/12/21 03:00:25;;;;;;;172.82;36.42;;;-1.90;99.90;;;;;;5037525;28;20032;-71
2021/12/21 03:02:51;;;;;;;167.63;37.25;;;-1.80;99.90;;;;;;5054120;28;20025;-70
2021/12/21 03:05:17;;;;;;;105.40;34.42;;;-1.80;99.90;;;;;;5054028;28;20021;-70
2021/12/21 03:08:07;;;;;;;114.50;33.85;;;-1.90;99.90;;;;;;5054637;28;20032;-71
2021/12/21 03:10:28;;;;;;;215.80;37.20;;;-1.90;99.90;;;;;;5054072;28;20036;-71
2021/12/21 03:15:39;;;;;;;128.25;32.97;;;-1.90;99.90;;;;;;5054888;28;20037;-71
2021/12/21 03:18:05;;;;;;;247.88;39.25;;;-1.90;99.90;;;;;;5054434;28;20521;-71
2021/12/21 03:20:32;;;;;;;268.40;40.38;;;-1.90;99.90;;;;;;5054278;28;20112;-71
2021/12/21 03:22:57;;;;;;;208.40;39.33;;;-1.90;99.90;;;;;;5054082;28;20052;-70
2021/12/21 03:25:22;;;;;;;233.40;39.80;;;-2.00;99.90;;;;;;5055196;28;20053;-70
2021/12/21 03:27:48;;;;;;;209.75;39.17;;;-1.90;99.90;;;;;;5053623;28;20478;-70
2021/12/21 03:30:15;;;;;;;322.15;44.53;;;-1.90;99.90;;;;;;5053560;28;20033;-71
2021/12/21 03:32:41;;;;;;;223.00;40.70;;;-2.00;99.90;;;;;;5053928;28;20036;-70
2021/12/21 03:35:08;;;;;;;337.15;47.13;;;-2.10;99.90;;;;;;5054981;28;20032;-70
2021/12/21 03:37:34;;;;;;;141.60;38.65;;;-2.10;99.90;;;;;;5053338;28;20025;-70
2021/12/21 03:40:01;;;;;;;198.73;40.08;;;-2.20;99.90;;;;;;5037191;28;20027;-70
2021/12/21 03:42:27;;;;;;;241.70;41.22;;;-2.10;99.90;;;;;;5055128;28;20458;-71
2021/12/21 03:44:53;;;;;;;161.80;38.33;;;-2.10;99.90;;;;;;5055095;28;20100;-70
2021/12/21 03:47:21;;;;;;;180.05;40.00;;;-2.00;99.90;;;;;;5037031;28;20029;-70
2021/12/21 03:49:53;;;;;;;299.30;46.67;;;-2.00;99.90;;;;;;5053612;28;20486;-70
2021/12/21 03:52:22;;;;;;;236.63;33.33;;;-2.00;99.90;;;;;;5053190;28;20033;-71
2021/12/21 03:54:50;;;;;;;342.33;49.13;;;-2.00;99.90;;;;;;5054884;28;20123;-70
2021/12/21 03:57:16;;;;;;;236.07;42.17;;;-2.10;99.90;;;;;;5053040;28;20371;-71
2021/12/21 03:59:43;;;;;;;388.60;55.05;;;-2.10;99.90;;;;;;5053368;28;20028;-70
2021/12/21 04:02:11;;;;;;;354.70;48.22;;;-2.10;99.90;;;;;;5053306;28;20142;-71
2021/12/21 04:04:38;;;;;;;331.77;48.50;;;-2.10;99.90;;;;;;5053278;28;20020;-70
2021/12/21 04:07:04;;;;;;;202.30;44.00;;;-2.10;99.90;;;;;;5054691;28;20025;-70
2021/12/21 04:09:29;;;;;;;197.05;43.42;;;-2.10;99.90;;;;;;5053049;28;20135;-70
2021/12/21 04:11:55;;;;;;;313.00;46.22;;;-2.10;99.90;;;;;;5052790;28;20028;-71
2021/12/21 04:14:20;;;;;;;236.20;45.72;;;-2.00;99.90;;;;;;5052761;28;20021;-71
2021/12/21 04:16:46;;;;;;;250.82;43.97;;;-2.00;99.90;;;;;;5053274;28;20071;-71
2021/12/21 04:19:13;;;;;;;125.70;40.50;;;-1.90;99.90;;;;;;5054193;28;20028;-70
2021/12/21 04:21:39;;;;;;;218.60;43.20;;;-1.90;99.90;;;;;;5054386;28;20052;-71
2021/12/21 04:24:05;;;;;;;197.40;43.97;;;-1.90;99.90;;;;;;5053361;28;20384;-70
2021/12/21 04:26:31;;;;;;;426.13;57.28;;;-1.90;99.90;;;;;;5052967;28;20029;-70
2021/12/21 04:28:56;;;;;;;374.52;46.75;;;-1.90;99.90;;;;;;5053127;28;20053;-70
2021/12/21 04:31:22;;;;;;;413.10;51.40;;;-1.90;99.90;;;;;;5053695;28;20028;-70
2021/12/21 04:33:47;;;;;;;256.02;43.08;;;-1.90;99.90;;;;;;5052450;28;20025;-70
2021/12/21 04:36:14;;;;;;;225.88;41.90;;;-1.90;99.90;;;;;;5054129;28;20033;-71
2021/12/21 04:38:44;;;;;;;257.65;43.67;;;-1.90;99.90;;;;;;5054184;28;20048;-71
2021/12/21 04:41:15;;;;;;;361.92;50.53;;;-1.80;99.90;;;;;;5054124;28;20021;-70
2021/12/21 04:43:42;;;;;;;243.05;41.80;;;-1.80;99.90;;;;;;5036791;28;20133;-70
2021/12/21 04:46:09;;;;;;;300.45;44.80;;;-1.70;99.90;;;;;;5052459;28;20385;-70
2021/12/21 04:48:34;;;;;;;232.07;41.08;;;-1.70;99.90;;;;;;5052317;28;20029;-70
2021/12/21 04:51:00;;;;;;;292.45;43.03;;;-1.70;99.90;;;;;;5052640;28;20060;-71
2021/12/21 04:53:26;;;;;;;241.93;42.92;;;-1.70;99.90;;;;;;5053970;28;20053;-70
2021/12/21 04:55:52;;;;;;;178.20;39.95;;;-1.80;99.90;;;;;;5035436;28;20142;-71
2021/12/21 04:58:18;;;;;;;222.65;44.92;;;-1.80;99.90;;;;;;5052154;28;20021;-70
2021/12/21 05:00:43;;;;;;;162.85;41.22;;;-1.70;99.90;;;;;;5035597;28;20053;-71
2021/12/21 05:03:09;;;;;;;314.17;50.58;;;-1.70;99.90;;;;;;5053867;28;20092;-70
2021/12/21 05:05:35;;;;;;;259.35;46.47;;;-1.70;99.90;;;;;;5052031;28;20386;-70
2021/12/21 05:08:10;;;;;;;398.95;53.22;;;-1.70;99.90;;;;;;5052075;28;20025;-70
2021/12/21 05:10:45;;;;;;;254.57;47.92;;;-1.70;99.90;;;;;;5052421;28;20017;-70
2021/12/21 05:13:11;;;;;;;336.60;50.35;;;-1.70;99.90;;;;;;5053298;28;20032;-70
2021/12/21 05:15:37;;;;;;;207.15;46.03;;;-1.80;99.90;;;;;;5052033;28;20389;-71
2021/12/21 05:18:02;;;;;;;243.95;47.45;;;-1.80;99.90;;;;;;5051967;28;20120;-71
2021/12/21 05:20:28;;;;;;;164.27;40.78;;;-1.70;99.90;;;;;;5035717;28;20103;-71
2021/12/21 05:22:54;;;;;;;281.95;47.05;;;-1.60;99.90;;;;;;5053736;28;20060;-70
2021/12/21 05:25:19;;;;;;;256.80;45.42;;;-1.60;99.90;;;;;;5053401;28;20025;-70
2021/12/21 05:27:45;;;;;;;223.00;47.25;;;-1.60;99.90;;;;;;5035367;28;20416;-70
2021/12/21 05:30:12;;;;;;;192.50;42.10;;;-1.70;99.90;;;;;;5035364;28;20033;-70
2021/12/21 05:32:37;;;;;;;194.80;43.10;;;-1.70;99.90;;;;;;5053336;28;20032;-71
2021/12/21 05:35:03;;;;;;;233.25;42.90;;;-1.60;99.90;;;;;;5035642;28;20382;-70
2021/12/21 05:37:29;;;;;;;167.70;41.88;;;-1.60;99.90;;;;;;5051686;28;20032;-70
2021/12/21 05:40:01;;;;;;;177.13;39.65;;;-1.60;99.90;;;;;;5039092;28;20029;-71
2021/12/21 05:42:26;;;;;;;138.23;39.03;;;-1.60;99.90;;;;;;5056453;28;20028;-71
2021/12/21 05:44:52;;;;;;;173.00;40.05;;;-1.60;99.90;;;;;;5039054;28;20025;-70
2021/12/21 05:47:18;;;;;;;170.85;37.10;;;-1.60;99.90;;;;;;5057052;28;20474;-70
2021/12/21 05:49:44;;;;;;;161.63;37.55;;;-1.60;99.90;;;;;;5055443;28;20225;-70
2021/12/21 05:52:10;;;;;;;189.35;39.38;;;-1.50;99.90;;;;;;5056982;28;20029;-70
2021/12/21 05:54:35;;;;;;;182.07;36.58;;;-1.60;99.90;;;;;;5055371;28;20079;-71
2021/12/21 05:57:02;;;;;;;222.32;54.13;;;-1.60;99.90;;;;;;5038710;28;20055;-70
2021/12/21 05:59:28;;;;;;;186.57;40.20;;;-1.60;99.90;;;;;;5055329;28;20478;-71
2021/12/21 06:01:53;;;;;;;155.25;36.97;;;-1.60;99.90;;;;;;5055248;28;20025;-70
2021/12/21 06:04:19;;;;;;;146.57;36.13;;;-1.60;99.90;;;;;;5055189;28;20052;-70
2021/12/21 06:06:44;;;;;;;112.40;36.40;;;-1.60;99.90;;;;;;5055118;28;20025;-70
2021/12/21 06:09:12;;;;;;;224.77;40.63;;;-1.70;99.90;;;;;;5055757;28;20033;-72
2021/12/21 06:11:46;;;;;;;212.50;38.67;;;-1.70;99.90;;;;;;5055434;28;20032;-70
2021/12/21 06:23:18;;;;;;;163.60;40.58;;;-1.70;99.90;;;;;;5054991;28;20382;-71
2021/12/21 06:27:59;;;;;;;208.27;39.00;;;-1.60;99.90;;;;;;5054906;28;20082;-71
2021/12/21 06:30:25;;;;;;;251.18;43.88;;;-1.70;99.90;;;;;;5054749;28;20467;-71
2021/12/21 06:32:51;;;;;;;120.28;38.80;;;-1.70;99.90;;;;;;5054742;28;20021;-71
2021/12/21 06:35:17;;;;;;;120.20;38.60;;;-1.70;99.90;;;;;;5054635;28;20029;-70
2021/12/21 06:37:43;;;;;;;177.65;39.22;;;-1.70;99.90;;;;;;5056327;28;20086;-71
2021/12/21 06:40:09;;;;;;;123.30;39.03;;;-1.80;99.90;;;;;;5055782;28;20421;-71
2021/12/21 06:42:36;;;;;;;163.52;41.63;;;-1.90;99.90;;;;;;5055940;28;20021;-71
2021/12/21 06:45:02;;;;;;;155.68;40.97;;;-1.90;99.90;;;;;;5038037;28;20112;-71
2021/12/21 06:52:59;;;;;;;114.72;39.67;;;-1.90;99.90;;;;;;5055318;28;20028;-71
2021/12/21 06:55:25;;;;;;;175.48;44.17;;;-1.90;99.90;;;;;;5055501;28;20056;-71
2021/12/21 06:57:50;;;;;;;207.80;46.83;;;-1.90;99.90;;;;;;5037589;28;20029;-71
2021/12/21 07:00:17;;;;;;;152.80;41.83;;;-1.90;99.90;;;;;;5055915;28;20094;-71
2021/12/21 07:02:43;;;;;;;151.70;40.72;;;-1.90;99.90;;;;;;5055779;28;20029;-71
2021/12/21 07:05:09;;;;;;;171.07;43.55;;;-1.80;99.90;;;;;;5054090;28;20474;-71
2021/12/21 07:07:36;;;;;;;339.42;48.78;;;-1.70;99.90;;;;;;5054631;28;20032;-71
2021/12/21 07:10:04;;;;;;;198.00;53.92;;;-1.70;99.90;;;;;;5037771;28;20025;-71
2021/12/21 07:18:13;;;;;;;236.63;45.22;;;-1.80;99.90;;;;;;5122819;27;20043;-72
2021/12/21 07:20:39;;;;;;;283.25;48.00;;;-1.80;99.90;;;;;;5133978;27;20030;-71
2021/12/21 07:23:06;;;;;;;250.27;46.20;;;-1.90;99.90;;;;;;5134660;27;20019;-72
2021/12/21 07:25:32;;;;;;;195.52;42.28;;;-1.90;99.90;;;;;;5117141;27;20487;-71
2021/12/21 07:27:58;;;;;;;267.75;45.50;;;-1.90;99.90;;;;;;5100085;27;20023;-71
2021/12/21 07:30:24;;;;;;;390.23;54.97;;;-1.90;99.90;;;;;;5152826;27;20079;-71
2021/12/21 07:32:50;;;;;;;218.13;40.42;;;-2.00;99.90;;;;;;5134332;27;20018;-70
2021/12/21 07:35:16;;;;;;;215.18;43.47;;;-2.00;99.90;;;;;;5116770;27;20467;-71
2021/12/21 07:37:42;;;;;;;361.70;49.55;;;-1.90;99.90;;;;;;5116726;27;20023;-70
2021/12/21 07:40:09;;;;;;;271.95;44.30;;;-1.90;99.90;;;;;;5152629;27;20030;-71
2021/12/21 07:42:34;;;;;;;282.23;45.08;;;-1.90;99.90;;;;;;5116627;27;20486;-71
2021/12/21 07:45:00;;;;;;;529.45;59.25;;;-1.90;99.90;;;;;;5134166;27;20034;-71
2021/12/21 07:47:25;;;;;;;163.75;38.88;;;-1.90;99.90;;;;;;5133243;27;20027;-71
2021/12/21 07:49:51;;;;;;;174.65;39.05;;;-1.90;99.90;;;;;;5128103;27;20042;-71
2021/12/21 07:52:18;;;;;;;350.63;47.63;;;-1.90;99.90;;;;;;5142691;27;20525;-71
2021/12/21 07:54:45;;;;;;;239.30;42.17;;;-1.90;99.90;;;;;;5125203;27;20030;-71
2021/12/21 07:57:10;;;;;;;275.40;44.58;;;-1.90;99.90;;;;;;5147197;27;20023;-70
2021/12/21 07:59:37;;;;;;;260.92;44.25;;;-1.90;99.90;;;;;;5112671;28;20521;-70
2021/12/21 08:02:03;;;;;;;216.63;42.92;;;-1.90;99.90;;;;;;5137648;27;20077;-71
2021/12/21 08:04:29;;;;;;;309.58;49.55;;;-1.90;99.90;;;;;;5130777;27;20080;-71
2021/12/21 08:06:58;;;;;;;211.45;48.13;;;-1.90;99.90;;;;;;5148911;27;20023;-71
2021/12/21 08:09:29;;;;;;;282.90;47.30;;;-1.80;99.90;;;;;;5116443;27;20392;-71
2021/12/21 08:12:26;;;;;;;319.10;50.95;;;-1.80;99.90;;;;;;5133751;27;20027;-71
2021/12/21 08:14:42;;;;;;;330.58;48.85;;;-1.80;99.90;;;;;;5150969;27;20039;-72
2021/12/21 08:17:08;;;;;;;244.00;47.35;;;-1.90;99.90;;;;;;5151856;27;20015;-71
2021/12/21 08:19:34;;;;;;;233.00;46.80;;;-1.90;99.90;;;;;;5131161;27;20061;-71
2021/12/21 08:21:59;;;;;;;302.92;49.25;;;-1.90;99.90;;;;;;5132800;27;20042;-71
2021/12/21 08:24:25;;;;;;;231.05;45.40;;;-1.90;99.90;;;;;;5132680;27;20027;-71
2021/12/21 08:26:50;;;;;;;242.98;47.58;;;-1.90;99.90;;;;;;5137304;27;20384;-71
2021/12/21 08:29:16;;;;;;;401.77;51.88;;;-1.80;99.90;;;;;;5102028;27;20414;-71
2021/12/21 08:31:41;;;;;;;343.33;49.72;;;-1.90;99.90;;;;;;5126546;27;20026;-71
2021/12/21 08:34:10;;;;;;;206.07;44.10;;;-2.00;99.90;;;;;;5097320;27;20383;-71
2021/12/21 08:36:35;;;;;;;249.32;48.97;;;-2.00;99.90;;;;;;5113873;27;20058;-70
2021/12/21 08:39:01;;;;;;;418.10;56.88;;;-2.00;99.90;;;;;;5131404;27;20055;-71
2021/12/21 08:41:27;;;;;;;234.18;46.53;;;-2.00;99.90;;;;;;5098040;28;20072;-70
2021/12/21 08:43:53;;;;;;;190.02;46.67;;;-2.00;99.90;;;;;;5117067;28;20038;-71
2021/12/21 08:46:18;;;;;;;324.55;46.83;;;-2.00;99.90;;;;;;5099135;28;20027;-71
2021/12/21 08:48:44;;;;;;;208.73;46.25;;;-2.00;99.90;;;;;;5081669;28;20031;-72
2021/12/21 08:51:09;;;;;;;188.73;46.90;;;-2.10;99.90;;;;;;5099172;28;20031;-71
2021/12/21 08:53:38;;;;;;;337.80;50.33;;;-2.00;99.90;;;;;;5065063;28;20019;-72
2021/12/21 08:56:03;;;;;;;202.48;43.60;;;-1.90;99.90;;;;;;5099676;28;20200;-71
2021/12/21 08:58:29;;;;;;;269.50;44.08;;;-1.80;99.90;;;;;;5098629;28;20027;-71
2021/12/21 09:00:55;;;;;;;333.10;49.47;;;-1.80;99.90;;;;;;5097876;28;20533;-71
2021/12/21 09:03:22;;;;;;;245.13;44.28;;;-1.90;99.90;;;;;;5116417;28;20023;-72
2021/12/21 09:05:47;;;;;;;223.02;43.10;;;-1.80;99.90;;;;;;5099863;27;20023;-70
2021/12/21 09:08:13;;;;;;;213.25;41.45;;;-1.80;99.90;;;;;;5105226;28;20027;-71
2021/12/21 09:10:40;;;;;;;267.52;42.78;;;-1.80;99.90;;;;;;5116921;27;20426;-71
2021/12/21 09:13:06;;;;;;;160.25;39.72;;;-1.80;99.90;;;;;;5105088;27;20028;-71
2021/12/21 09:15:31;;;;;;;130.18;38.92;;;-1.80;99.90;;;;;;5116154;27;20023;-71
2021/12/21 09:17:57;;;;;;;196.55;43.28;;;-1.70;99.90;;;;;;5114573;27;20396;-70
2021/12/21 09:20:25;;;;;;;218.20;42.72;;;-1.60;99.90;;;;;;5099311;28;20080;-71
2021/12/21 09:22:52;;;;;;;307.40;46.70;;;-1.60;99.90;;;;;;5122872;27;20022;-71
2021/12/21 09:25:18;;;;;;;259.17;46.22;;;-1.70;99.90;;;;;;5124491;27;20020;-71
2021/12/21 09:27:44;;;;;;;429.23;55.20;;;-1.70;99.90;;;;;;5102278;27;20479;-67
2021/12/21 09:30:14;;;;;;;232.90;43.47;;;-1.70;99.90;;;;;;5121687;27;20366;-65
2021/12/21 09:32:40;;;;;;;338.48;50.42;;;-1.70;99.90;;;;;;5121633;27;20020;-65
2021/12/21 09:35:07;;;;;;;224.90;45.92;;;-1.60;99.90;;;;;;5127926;27;20027;-66
2021/12/21 09:37:32;;;;;;;252.98;46.13;;;-1.70;99.90;;;;;;5121605;27;20024;-67
2021/12/21 09:39:59;;;;;;;304.27;48.80;;;-1.60;99.90;;;;;;5063528;28;20031;-67
2021/12/21 09:42:28;;;;;;;402.75;49.38;;;-1.60;99.90;;;;;;5102242;28;20023;-67
2021/12/21 09:44:54;;;;;;;349.42;49.15;;;-1.60;99.90;;;;;;5104681;27;20543;-67
2021/12/21 09:47:21;;;;;;;333.15;48.95;;;-1.60;99.90;;;;;;5107190;27;20035;-67
2021/12/21 09:49:47;;;;;;;289.73;47.63;;;-1.70;99.90;;;;;;5107357;28;20024;-66
2021/12/21 09:52:18;;;;;;;246.02;44.33;;;-1.70;99.90;;;;;;5110015;27;20055;-66
2021/12/21 09:54:44;;;;;;;267.02;46.80;;;-1.70;99.90;;;;;;5121594;27;20031;-66
2021/12/21 09:57:10;;;;;;;247.07;49.63;;;-1.70;99.90;;;;;;5102518;27;20111;-66
2021/12/21 09:59:36;;;;;;;324.35;49.67;;;-1.70;99.90;;;;;;5097928;27;20102;-66
2021/12/21 10:02:03;;;;;;;254.55;49.85;;;-1.70;99.90;;;;;;5127124;27;20023;-66
2021/12/21 10:04:29;;;;;;;160.00;47.28;;;-1.60;99.90;;;;;;5101284;27;20058;-66
2021/12/21 10:06:57;;;;;;;193.10;48.88;;;-1.50;99.90;;;;;;5118711;27;20055;-66
2021/12/21 10:09:32;;;;;;;248.02;50.35;;;-1.50;99.90;;;;;;5113728;27;20033;-71
2021/12/21 10:11:58;;;;;;;255.65;46.78;;;-1.40;99.90;;;;;;5112093;28;20019;-72
2021/12/21 10:14:25;;;;;;;152.73;43.63;;;-1.30;99.90;;;;;;5092719;28;20055;-72
2021/12/21 10:17:08;;;;;;;157.88;42.58;;;-1.30;99.90;;;;;;5094531;28;20062;-72
2021/12/21 10:19:35;;;;;;;138.60;38.00;;;-1.30;99.90;;;;;;5076381;28;20210;-72
2021/12/21 10:22:11;;;;;;;115.68;39.33;;;-1.30;99.90;;;;;;5098343;28;20024;-72
2021/12/21 10:24:45;;;;;;;137.52;39.55;;;-1.30;99.90;;;;;;5097263;28;20031;-71
2021/12/21 10:27:11;;;;;;;187.75;43.05;;;-1.40;99.90;;;;;;5108865;28;20490;-72
2021/12/21 10:29:47;;;;;;;148.38;41.78;;;-1.30;99.90;;;;;;5105493;28;20066;-72
2021/12/21 10:32:27;;;;;;;159.07;40.58;;;-1.30;99.90;;;;;;5077455;28;20028;-72
2021/12/21 10:35:10;;;;;;;187.85;39.63;;;-1.30;99.90;;;;;;5105957;28;20024;-66
2021/12/21 10:37:38;;;;;;;192.15;40.75;;;-1.30;99.90;;;;;;5105520;28;20469;-66
2021/12/21 10:40:27;;;;;;;163.85;38.70;;;-1.20;99.90;;;;;;5104927;28;20058;-66
2021/12/21 10:43:09;;;;;;;110.95;38.17;;;-1.20;99.90;;;;;;5097624;28;20023;-66
2021/12/21 10:45:40;;;;;;;205.88;43.60;;;-1.10;99.90;;;;;;5101655;28;20028;-67
2021/12/21 10:48:11;;;;;;;326.38;47.55;;;-1.20;99.90;;;;;;5093613;28;20380;-66
2021/12/21 10:50:36;;;;;;;188.77;41.25;;;-1.20;99.90;;;;;;5114659;28;20141;-66
2021/12/21 10:53:03;;;;;;;148.77;37.97;;;-1.20;99.90;;;;;;5095565;28;20118;-66
2021/12/21 10:55:34;;;;;;;162.45;39.47;;;-1.30;99.90;;;;;;5110141;28;20030;-66
2021/12/21 10:58:11;;;;;;;214.68;39.60;;;-1.20;99.90;;;;;;5082748;28;20487;-66
2021/12/21 11:00:41;;;;;;;206.13;41.47;;;-1.30;99.90;;;;;;5106416;28;20468;-66
2021/12/21 11:03:07;;;;;;;246.63;41.38;;;-1.30;99.90;;;;;;5105518;28;20020;-66
2021/12/21 11:05:33;;;;;;;227.00;41.67;;;-1.30;99.90;;;;;;5092231;28;20016;-66
2021/12/21 11:08:06;;;;;;;376.42;46.78;;;-1.30;99.90;;;;;;5093760;28;20034;-67
2021/12/21 11:10:35;;;;;;;153.85;37.28;;;-1.40;99.90;;;;;;5096708;28;20016;-66
2021/12/21 11:13:07;;;;;;;236.70;42.05;;;-1.40;99.90;;;;;;5093798;28;20020;-70
2021/12/21 11:15:36;;;;;;;302.25;45.15;;;-1.40;99.90;;;;;;5114150;28;20077;-66
2021/12/21 11:18:05;;;;;;;490.65;56.80;;;-1.40;99.90;;;;;;5114996;28;20028;-66
2021/12/21 11:20:31;;;;;;;555.40;60.28;;;-1.40;99.90;;;;;;5096799;28;20028;-67
2021/12/21 11:22:57;;;;;;;544.70;59.00;;;-1.30;99.90;;;;;;5113934;28;20020;-66
2021/12/21 11:25:23;;;;;;;250.40;43.00;;;-1.30;99.90;;;;;;5063769;28;20035;-66
2021/12/21 11:27:50;;;;;;;300.02;47.40;;;-1.20;99.90;;;;;;5105779;28;20061;-66
2021/12/21 11:30:20;;;;;;;346.90;48.78;;;-1.20;99.90;;;;;;5134255;28;20098;-67
2021/12/21 11:32:49;;;;;;;278.23;47.22;;;-1.20;99.90;;;;;;5111926;28;20083;-67
2021/12/21 11:37:59;;;;;;;258.25;45.03;;;-1.10;99.90;;;;;;5071480;28;20353;-65
2021/12/21 11:40:29;;;;;;;260.88;44.72;;;-1.10;99.90;;;;;;5070470;28;20037;-65
2021/12/21 11:43:05;;;;;;;138.50;40.75;;;-1.10;99.90;;;;;;5070424;28;20465;-67
2021/12/21 11:45:39;;;;;;;256.35;44.80;;;-1.00;99.90;;;;;;5072910;28;20499;-66
2021/12/21 11:48:18;;;;;;;215.10;42.33;;;-1.00;99.90;;;;;;5089523;28;20429;-67
2021/12/21 11:50:46;;;;;;;157.40;39.38;;;-1.10;99.90;;;;;;5072267;28;20024;-67
2021/12/21 11:53:17;;;;;;;273.60;45.53;;;-1.10;99.90;;;;;;5072476;28;20477;-66
2021/12/21 11:55:45;;;;;;;294.40;45.42;;;-1.00;99.90;;;;;;5055338;28;20397;-67
2021/12/21 11:58:32;;;;;;;147.60;39.13;;;-1.00;99.90;;;;;;5070930;28;20017;-67
2021/12/21 12:01:03;;;;;;;202.20;41.17;;;-1.00;99.90;;;;;;5049805;28;20060;-67
2021/12/21 12:03:32;;;;;;;85.65;34.70;;;-1.00;99.90;;;;;;5050300;28;20060;-67
2021/12/21 12:06:02;;;;;;;80.57;33.90;;;-0.90;99.90;;;;;;5049678;28;20033;-66
2021/12/21 12:08:44;;;;;;;68.85;31.33;;;-0.90;99.90;;;;;;5051460;28;20522;-66
2021/12/21 12:11:22;;;;;;;126.95;34.67;;;-0.90;99.90;;;;;;5051279;28;20029;-66
2021/12/21 12:13:47;;;;;;;166.05;35.00;;;-1.00;99.90;;;;;;5065298;28;20033;-66
2021/12/21 12:16:15;;;;;;;192.23;36.70;;;-1.20;99.90;;;;;;5052365;28;20029;-67
2021/12/21 12:18:44;;;;;;;115.13;32.30;;;-1.20;99.90;;;;;;5061036;28;20500;-66
2021/12/21 12:21:19;;;;;;;175.68;35.00;;;-1.20;99.90;;;;;;5065374;28;20091;-66
2021/12/21 12:23:49;;;;;;;113.88;35.60;;;-1.20;99.90;;;;;;5033258;28;20402;-66
2021/12/21 12:26:36;;;;;;;123.97;33.50;;;-1.10;99.90;;;;;;5048678;28;20025;-66
2021/12/21 12:29:18;;;;;;;145.93;34.60;;;-1.10;99.90;;;;;;5048505;28;20501;-66
2021/12/21 12:32:00;;;;;;;104.57;33.95;;;-1.20;99.90;;;;;;5061239;28;20082;-66
2021/12/21 12:34:29;;;;;;;83.15;34.00;;;-1.10;99.90;;;;;;5060119;28;20025;-66
2021/12/21 12:36:55;;;;;;;139.93;34.97;;;-1.20;99.90;;;;;;5069419;28;20098;-66
2021/12/21 12:39:42;;;;;;;124.88;33.17;;;-1.10;99.90;;;;;;5031554;28;20021;-66
2021/12/21 12:42:11;;;;;;;183.30;37.10;;;-1.10;99.90;;;;;;5066707;28;20032;-66
2021/12/21 12:44:40;;;;;;;174.52;36.50;;;-1.10;99.90;;;;;;5031950;28;20027;-66
2021/12/21 12:47:09;;;;;;;108.45;35.92;;;-1.20;99.90;;;;;;5049151;28;20032;-66
2021/12/21 12:49:40;;;;;;;143.95;37.75;;;-1.40;99.90;;;;;;5036096;28;20084;-66
2021/12/21 12:52:12;;;;;;;159.73;39.38;;;-1.30;99.90;;;;;;5035614;28;20026;-67
2021/12/21 12:54:49;;;;;;;143.88;37.30;;;-1.30;99.90;;;;;;5034774;28;20031;-67
2021/12/21 12:57:36;;;;;;;135.13;38.38;;;-1.20;99.90;;;;;;5036548;28;20109;-66
2021/12/21 13:00:21;;;;;;;136.43;37.80;;;-1.10;99.90;;;;;;5035484;28;20516;-66
2021/12/21 13:03:06;;;;;;;168.82;38.75;;;-1.10;99.90;;;;;;5036050;28;20459;-66